createdAt,value
2018-06-18T00:01:08.545Z,98861.00
2018-06-18T00:03:36.914Z,98864.00
2018-06-18T00:06:06.998Z,98867.00
2018-06-18T00:08:35.380Z,98859.00
2018-06-18T00:11:05.876Z,98866.00
2018-06-18T00:13:37.243Z,98861.00
2018-06-18T00:18:58.993Z,98864.00
2018-06-18T00:21:27.857Z,98867.00
2018-06-18T00:23:57.261Z,98866.00
2018-06-18T00:26:25.972Z,98869.00
2018-06-18T00:28:56.361Z,98870.00
2018-06-18T00:31:26.984Z,98875.00
2018-06-18T00:33:56.754Z,98872.00
2018-06-18T00:36:26.640Z,98871.00
2018-06-18T00:38:56.259Z,98873.00
2018-06-18T00:41:26.440Z,98873.00
2018-06-18T00:43:56.529Z,98869.00
2018-06-18T00:46:26.777Z,98871.00
2018-06-18T00:48:56.958Z,98868.00
2018-06-18T00:51:26.620Z,98872.00
2018-06-18T00:53:56.934Z,98868.00
2018-06-18T00:56:25.857Z,98870.00
2018-06-18T00:58:55.385Z,98870.00
2018-06-18T01:01:26.684Z,98868.00
2018-06-18T01:03:55.948Z,98873.00
2018-06-18T01:06:26.217Z,98874.00
2018-06-18T01:08:56.722Z,98875.00
2018-06-18T01:11:26.917Z,98874.00
2018-06-18T01:13:56.490Z,98878.00
2018-06-18T01:16:25.413Z,98875.00
2018-06-18T01:18:56.896Z,98879.00
2018-06-18T01:21:26.149Z,98879.00
2018-06-18T01:24:15.076Z,98879.00
2018-06-18T01:26:45.745Z,98881.00
2018-06-18T01:29:15.672Z,98881.00
2018-06-18T01:31:46.225Z,98883.00
2018-06-18T01:34:18.872Z,98887.00
2018-06-18T01:36:47.216Z,98888.00
2018-06-18T01:39:15.570Z,98889.00
2018-06-18T01:41:46.015Z,98903.00
2018-06-18T01:44:17.141Z,98901.00
2018-06-18T01:46:46.058Z,98901.00
2018-06-18T01:49:15.118Z,98901.00
2018-06-18T01:51:45.812Z,98906.00
2018-06-18T01:54:16.252Z,98896.00
2018-06-18T01:56:45.266Z,98895.00
2018-06-18T01:59:17.270Z,98886.00
2018-06-18T02:01:46.215Z,98890.00
2018-06-18T02:04:14.975Z,98889.00
2018-06-18T02:06:44.449Z,98890.00
2018-06-18T02:09:15.541Z,98893.00
2018-06-18T02:11:47.120Z,98891.00
2018-06-18T02:14:16.028Z,98894.00
2018-06-18T02:16:47.256Z,98897.00
2018-06-18T02:19:17.723Z,98897.00
2018-06-18T02:21:46.075Z,98895.00
2018-06-18T02:24:15.167Z,98902.00
2018-06-18T02:26:45.649Z,98901.00
2018-06-18T02:29:22.512Z,98902.00
2018-06-18T02:31:56.423Z,98899.00
2018-06-18T02:34:31.346Z,98898.00
2018-06-18T02:37:05.110Z,98898.00
2018-06-18T02:39:38.963Z,98906.00
2018-06-18T02:42:07.319Z,98914.00
2018-06-18T02:44:36.222Z,98924.00
2018-06-18T02:47:06.546Z,98925.00
2018-06-18T02:49:36.005Z,98931.00
2018-06-18T02:52:05.717Z,98924.00
2018-06-18T02:54:35.850Z,98926.00
2018-06-18T02:57:06.898Z,98935.00
2018-06-18T02:59:35.948Z,98930.00
2018-06-18T03:02:05.982Z,98939.00
2018-06-18T03:04:36.188Z,98936.00
2018-06-18T03:07:05.677Z,98937.00
2018-06-18T03:09:36.903Z,98937.00
2018-06-18T03:12:06.207Z,98938.00
2018-06-18T03:14:35.857Z,98938.00
2018-06-18T03:17:05.743Z,98936.00
2018-06-18T03:19:45.516Z,98934.00
2018-06-18T03:22:23.657Z,98932.00
2018-06-18T03:24:57.961Z,98929.00
2018-06-18T03:27:33.826Z,98938.00
2018-06-18T03:30:04.566Z,98939.00
2018-06-18T03:32:35.059Z,98936.00
2018-06-18T03:35:05.145Z,98945.00
2018-06-18T03:37:35.854Z,98948.00
2018-06-18T03:40:07.187Z,98948.00
2018-06-18T03:42:35.716Z,98950.00
2018-06-18T03:45:17.040Z,98940.00
2018-06-18T03:47:45.659Z,98938.00
2018-06-18T03:50:16.122Z,98946.00
2018-06-18T03:52:44.977Z,98956.00
2018-06-18T03:55:17.215Z,98942.00
2018-06-18T03:57:45.622Z,98943.00
2018-06-18T04:00:15.612Z,98945.00
2018-06-18T04:05:09.167Z,98942.00
2018-06-18T04:07:43.033Z,98953.00
2018-06-18T04:10:16.882Z,98954.00
2018-06-18T04:12:45.577Z,98960.00
2018-06-18T04:15:16.219Z,98964.00
2018-06-18T04:17:45.562Z,98968.00
2018-06-18T04:20:16.842Z,98960.00
2018-06-18T04:22:45.441Z,98961.00
2018-06-18T04:25:15.782Z,98963.00
2018-06-18T04:27:45.738Z,98968.00
2018-06-18T04:30:15.446Z,98973.00
2018-06-18T04:32:44.055Z,98972.00
2018-06-18T04:35:14.951Z,98965.00
2018-06-18T04:37:46.153Z,98963.00
2018-06-18T04:40:15.736Z,98967.00
2018-06-18T04:42:51.932Z,98960.00
2018-06-18T04:45:25.478Z,98958.00
2018-06-18T04:48:02.297Z,98964.00
2018-06-18T04:50:36.846Z,98965.00
2018-06-18T04:53:05.400Z,98973.00
2018-06-18T04:55:34.052Z,98971.00
2018-06-18T04:58:04.628Z,98958.00
2018-06-18T05:00:42.209Z,98963.00
2018-06-18T05:03:13.573Z,98966.00
2018-06-18T05:05:44.175Z,98972.00
2018-06-18T05:08:24.381Z,98972.00
2018-06-18T05:10:54.828Z,98965.00
2018-06-18T05:13:25.716Z,98963.00
2018-06-18T05:15:55.282Z,98960.00
2018-06-18T05:18:25.134Z,98964.00
2018-06-18T05:20:55.127Z,98961.00
2018-06-18T05:23:25.576Z,98965.00
2018-06-18T05:25:58.217Z,98969.00
2018-06-18T05:28:26.694Z,98964.00
2018-06-18T05:30:55.695Z,98967.00
2018-06-18T05:33:25.214Z,98961.00
2018-06-18T05:35:53.907Z,98962.00
2018-06-18T05:38:30.176Z,98963.00
2018-06-18T05:41:02.206Z,98959.00
2018-06-18T05:43:31.253Z,98962.00
2018-06-18T05:46:00.158Z,98966.00
2018-06-18T05:48:28.659Z,98961.00
2018-06-18T05:50:57.331Z,98957.00
2018-06-18T05:53:25.750Z,98957.00
2018-06-18T05:55:54.647Z,98959.00
2018-06-18T05:58:24.200Z,98959.00
2018-06-18T06:00:53.947Z,98959.00
2018-06-18T06:03:25.706Z,98955.00
2018-06-18T06:05:57.995Z,98964.00
2018-06-18T06:08:27.223Z,98960.00
2018-06-18T06:10:56.635Z,98964.00
2018-06-18T06:13:25.734Z,98975.00
2018-06-18T06:15:55.993Z,98980.00
2018-06-18T06:18:25.191Z,98977.00
2018-06-18T06:21:02.041Z,98976.00
2018-06-18T06:23:31.030Z,98977.00
2018-06-18T06:26:00.303Z,98980.00
2018-06-18T06:28:29.547Z,98976.00
2018-06-18T06:30:59.006Z,98981.00
2018-06-18T06:33:28.777Z,98983.00
2018-06-18T06:35:59.690Z,98980.00
2018-06-18T06:38:29.406Z,98988.00
2018-06-18T06:40:58.908Z,98987.00
2018-06-18T06:43:27.342Z,98991.00
2018-06-18T06:45:55.781Z,98992.00
2018-06-18T06:48:32.011Z,98996.00
2018-06-18T06:51:00.451Z,99003.00
2018-06-18T06:53:29.570Z,99002.00
2018-06-18T06:55:58.097Z,99007.00
2018-06-18T06:58:26.765Z,99012.00
2018-06-18T07:00:55.193Z,99008.00
2018-06-18T07:03:25.648Z,99013.00
2018-06-18T07:05:54.072Z,99011.00
2018-06-18T07:08:22.714Z,99018.00
2018-06-18T07:10:52.230Z,99019.00
2018-06-18T07:13:20.693Z,99016.00
2018-06-18T07:15:49.235Z,99010.00
2018-06-18T07:18:17.677Z,99000.00
2018-06-18T07:20:46.119Z,98997.00
2018-06-18T07:23:14.565Z,99002.00
2018-06-18T07:25:42.936Z,99005.00
2018-06-18T07:28:13.561Z,99004.00
2018-06-18T07:30:44.651Z,99018.00
2018-06-18T07:33:13.200Z,99011.00
2018-06-18T07:35:44.099Z,99014.00
2018-06-18T07:38:12.902Z,99007.00
2018-06-18T07:40:42.302Z,99010.00
2018-06-18T07:43:10.948Z,99006.00
2018-06-18T07:45:39.332Z,99000.00
2018-06-18T07:48:07.735Z,99007.00
2018-06-18T07:50:36.322Z,99008.00
2018-06-18T07:53:04.842Z,99012.00
2018-06-18T07:55:34.279Z,99013.00
2018-06-18T07:58:02.729Z,99015.00
2018-06-18T08:00:31.425Z,99011.00
2018-06-18T08:03:01.573Z,99018.00
2018-06-18T08:05:30.074Z,99011.00
2018-06-18T08:07:58.541Z,99012.00
2018-06-18T08:10:27.598Z,99012.00
2018-06-18T08:12:58.458Z,99009.00
2018-06-18T08:15:27.731Z,99010.00
2018-06-18T08:17:56.208Z,99009.00
2018-06-18T08:20:24.900Z,99013.00
2018-06-18T08:22:53.950Z,99019.00
2018-06-18T08:25:24.526Z,99021.00
2018-06-18T08:27:53.692Z,99021.00
2018-06-18T08:30:22.387Z,99022.00
2018-06-18T08:32:51.458Z,99018.00
2018-06-18T08:35:20.283Z,99017.00
2018-06-18T08:37:49.290Z,99017.00
2018-06-18T08:40:18.241Z,99016.00
2018-06-18T08:42:47.251Z,99018.00
2018-06-18T08:45:15.980Z,99018.00
2018-06-18T08:47:45.518Z,99023.00
2018-06-18T08:50:19.548Z,99013.00
2018-06-18T08:56:24.626Z,99026.00
2018-06-18T08:59:10.148Z,99023.00
2018-06-18T09:01:43.478Z,99008.00
2018-06-18T09:04:52.726Z,99012.00
2018-06-18T09:07:25.674Z,99010.00
2018-06-18T09:09:54.467Z,99004.00
2018-06-18T09:12:23.447Z,99008.00
2018-06-18T09:14:51.961Z,99004.00
2018-06-18T09:17:23.844Z,99004.00
2018-06-18T09:19:54.566Z,98998.00
2018-06-18T09:22:24.271Z,99009.00
2018-06-18T09:24:54.157Z,99003.00
2018-06-18T09:27:23.588Z,99007.00
2018-06-18T09:29:58.677Z,99005.00
2018-06-18T09:32:27.783Z,99009.00
2018-06-18T09:34:56.808Z,99003.00
2018-06-18T09:37:26.909Z,98999.00
2018-06-18T09:39:55.847Z,99001.00
2018-06-18T09:42:24.910Z,99000.00
2018-06-18T09:44:53.790Z,98997.00
2018-06-18T09:47:22.893Z,98994.00
2018-06-18T09:49:59.109Z,98996.00
2018-06-18T09:52:33.269Z,98999.00
2018-06-18T09:55:07.683Z,98997.00
2018-06-18T09:57:41.873Z,98997.00
2018-06-18T10:00:21.724Z,98990.00
2018-06-18T10:02:50.729Z,98986.00
2018-06-18T10:05:19.521Z,98987.00
2018-06-18T10:07:48.619Z,98984.00
2018-06-18T10:10:17.621Z,98981.00
2018-06-18T10:12:46.647Z,98981.00
2018-06-18T10:15:15.417Z,98979.00
2018-06-18T10:17:44.587Z,98979.00
2018-06-18T10:20:13.595Z,98969.00
2018-06-18T10:22:43.857Z,98970.00
2018-06-18T10:25:12.588Z,98972.00
2018-06-18T10:27:41.584Z,98973.00
2018-06-18T10:30:10.297Z,98976.00
2018-06-18T10:32:44.568Z,98971.00
2018-06-18T10:35:19.292Z,98971.00
2018-06-18T10:37:57.174Z,98969.00
2018-06-18T10:40:31.763Z,98964.00
2018-06-18T10:43:08.339Z,98972.00
2018-06-18T10:45:37.074Z,98971.00
2018-06-18T10:48:07.749Z,98968.00
2018-06-18T10:50:37.926Z,98972.00
2018-06-18T10:53:06.959Z,98974.00
2018-06-18T10:55:35.675Z,98953.00
2018-06-18T10:58:04.921Z,98958.00
2018-06-18T11:00:33.717Z,98962.00
2018-06-18T11:03:02.737Z,98964.00
2018-06-18T11:05:38.130Z,98962.00
2018-06-18T11:08:07.770Z,98961.00
2018-06-18T11:10:36.712Z,98958.00
2018-06-18T11:13:06.168Z,98970.00
2018-06-18T11:15:35.206Z,98969.00
2018-06-18T11:18:09.759Z,98974.00
2018-06-18T11:20:43.696Z,98970.00
2018-06-18T11:23:17.812Z,98974.00
2018-06-18T11:25:51.738Z,98967.00
2018-06-18T11:28:20.791Z,98982.00
2018-06-18T11:30:49.710Z,98973.00
2018-06-18T11:33:18.704Z,98961.00
2018-06-18T11:35:47.500Z,98969.00
2018-06-18T11:38:16.473Z,98962.00
2018-06-18T11:40:45.547Z,98966.00
2018-06-18T11:43:14.677Z,98962.00
2018-06-18T11:45:43.431Z,98962.00
2018-06-18T11:48:15.157Z,98964.00
2018-06-18T11:50:44.456Z,98969.00
2018-06-18T11:53:13.397Z,98967.00
2018-06-18T11:55:42.433Z,98963.00
2018-06-18T11:58:11.601Z,98958.00
2018-06-18T12:00:45.722Z,98953.00
2018-06-18T12:03:20.083Z,98961.00
2018-06-18T12:05:54.148Z,98963.00
2018-06-18T12:08:28.513Z,98967.00
2018-06-18T12:10:57.248Z,98965.00
2018-06-18T12:13:26.241Z,98964.00
2018-06-18T12:15:54.967Z,98968.00
2018-06-18T12:18:23.990Z,98952.00
2018-06-18T12:20:52.772Z,98946.00
2018-06-18T12:23:21.825Z,98950.00
2018-06-18T12:25:50.535Z,98945.00
2018-06-18T12:28:19.508Z,98948.00
2018-06-18T12:30:48.233Z,98945.00
2018-06-18T12:33:17.235Z,98952.00
2018-06-18T12:35:45.949Z,98951.00
2018-06-18T12:38:14.963Z,98951.00
2018-06-18T12:40:43.672Z,98949.00
2018-06-18T12:43:13.647Z,98953.00
2018-06-18T12:45:47.665Z,98956.00
2018-06-18T12:48:21.919Z,98953.00
2018-06-18T12:50:55.827Z,98952.00
2018-06-18T12:53:30.224Z,98947.00
2018-06-18T12:56:04.128Z,98951.00
2018-06-18T12:58:33.129Z,98950.00
2018-06-18T13:01:01.828Z,98953.00
2018-06-18T13:03:31.042Z,98956.00
2018-06-18T13:05:59.961Z,98942.00
2018-06-18T13:08:28.999Z,98952.00
2018-06-18T13:10:57.766Z,98960.00
2018-06-18T13:13:26.733Z,98962.00
2018-06-18T13:15:55.412Z,98965.00
2018-06-18T13:18:24.365Z,98954.00
2018-06-18T13:20:53.121Z,98957.00
2018-06-18T13:23:22.217Z,98962.00
2018-06-18T13:25:53.068Z,98955.00
2018-06-18T13:28:22.297Z,98961.00
2018-06-18T13:30:51.657Z,98960.00
2018-06-18T13:33:20.734Z,98963.00
2018-06-18T13:35:50.249Z,98968.00
2018-06-18T13:38:24.566Z,98966.00
2018-06-18T13:40:58.463Z,98959.00
2018-06-18T13:43:32.611Z,98966.00
2018-06-18T13:46:06.725Z,98963.00
2018-06-18T13:48:40.867Z,98969.00
2018-06-18T13:51:09.607Z,98969.00
2018-06-18T13:53:38.706Z,98969.00
2018-06-18T13:56:07.489Z,98964.00
2018-06-18T13:58:36.517Z,98963.00
2018-06-18T14:01:05.562Z,98968.00
2018-06-18T14:03:34.578Z,98959.00
2018-06-18T14:06:03.892Z,98957.00
2018-06-18T14:08:32.909Z,98956.00
2018-06-18T14:11:01.743Z,98961.00
2018-06-18T14:13:33.355Z,98954.00
2018-06-18T14:16:02.228Z,98962.00
2018-06-18T14:18:31.347Z,98961.00
2018-06-18T14:21:02.391Z,98957.00
2018-06-18T14:23:33.561Z,98958.00
2018-06-18T14:29:04.822Z,98967.00
2018-06-18T14:31:45.391Z,98960.00
2018-06-18T14:34:24.177Z,98967.00
2018-06-18T14:37:00.563Z,98958.00
2018-06-18T14:39:37.115Z,98952.00
2018-06-18T14:42:07.858Z,98955.00
2018-06-18T14:44:37.611Z,98954.00
2018-06-18T14:47:07.122Z,98954.00
2018-06-18T14:49:35.829Z,98954.00
2018-06-18T14:52:04.835Z,98952.00
2018-06-18T14:54:33.860Z,98951.00
2018-06-18T14:57:04.445Z,98955.00
2018-06-18T14:59:38.512Z,98956.00
2018-06-18T15:02:07.671Z,98956.00
2018-06-18T15:04:36.413Z,98962.00
2018-06-18T15:07:05.511Z,98962.00
2018-06-18T15:09:34.039Z,98957.00
2018-06-18T15:12:03.253Z,98960.00
2018-06-18T15:14:33.938Z,98957.00
2018-06-18T15:17:04.259Z,98948.00
2018-06-18T15:19:33.930Z,98942.00
2018-06-18T15:22:04.045Z,98936.00
2018-06-18T15:24:53.408Z,98943.00
2018-06-18T15:27:23.421Z,98946.00
2018-06-18T15:29:52.342Z,98939.00
2018-06-18T15:32:23.798Z,98940.00
2018-06-18T15:34:53.797Z,98939.00
2018-06-18T15:37:22.763Z,98941.00
2018-06-18T15:39:51.431Z,98941.00
2018-06-18T15:42:20.667Z,98942.00
2018-06-18T15:44:49.649Z,98933.00
2018-06-18T15:47:18.621Z,98937.00
2018-06-18T15:49:47.575Z,98936.00
2018-06-18T15:52:16.561Z,98941.00
2018-06-18T15:54:45.521Z,98940.00
2018-06-18T15:57:14.581Z,98933.00
2018-06-18T15:59:45.581Z,98937.00
2018-06-18T16:02:14.583Z,98938.00
2018-06-18T16:04:43.570Z,98931.00
2018-06-18T16:07:12.727Z,98933.00
2018-06-18T16:09:41.401Z,98927.00
2018-06-18T16:12:10.583Z,98932.00
2018-06-18T16:14:39.548Z,98927.00
2018-06-18T16:17:08.632Z,98932.00
2018-06-18T16:19:37.652Z,98929.00
2018-06-18T16:22:08.744Z,98923.00
2018-06-18T16:24:37.475Z,98921.00
2018-06-18T16:27:06.655Z,98924.00
2018-06-18T16:29:36.469Z,98926.00
2018-06-18T16:32:05.559Z,98928.00
2018-06-18T16:34:34.318Z,98937.00
2018-06-18T16:37:03.683Z,98942.00
2018-06-18T16:39:32.219Z,98936.00
2018-06-18T16:42:01.724Z,98934.00
2018-06-18T16:44:31.118Z,98938.00
2018-06-18T16:47:00.350Z,98932.00
2018-06-18T16:49:28.799Z,98928.00
2018-06-18T16:51:57.266Z,98926.00
2018-06-18T16:54:25.688Z,98921.00
2018-06-18T16:56:54.107Z,98920.00
2018-06-18T16:59:22.588Z,98919.00
2018-06-18T17:01:50.946Z,98917.00
2018-06-18T17:04:19.427Z,98917.00
2018-06-18T17:06:47.858Z,98912.00
2018-06-18T17:09:16.335Z,98909.00
2018-06-18T17:11:44.784Z,98914.00
2018-06-18T17:14:13.203Z,98912.00
2018-06-18T17:16:42.523Z,98917.00
2018-06-18T17:19:11.483Z,98913.00
2018-06-18T17:21:39.910Z,98917.00
2018-06-18T17:24:08.319Z,98911.00
2018-06-18T17:26:36.962Z,98916.00
2018-06-18T17:29:05.388Z,98911.00
2018-06-18T17:31:33.730Z,98915.00
2018-06-18T17:34:02.487Z,98910.00
2018-06-18T17:36:30.922Z,98908.00
2018-06-18T17:38:59.364Z,98907.00
2018-06-18T17:41:27.789Z,98908.00
2018-06-18T17:43:56.193Z,98912.00
2018-06-18T17:46:24.721Z,98914.00
2018-06-18T17:48:53.127Z,98915.00
2018-06-18T17:51:21.813Z,98911.00
2018-06-18T17:53:50.298Z,98918.00
2018-06-18T17:56:18.870Z,98912.00
2018-06-18T17:58:47.282Z,98912.00
2018-06-18T18:01:15.676Z,98915.00
2018-06-18T18:03:44.387Z,98911.00
2018-06-18T18:06:12.779Z,98914.00
2018-06-18T18:08:41.563Z,98918.00
2018-06-18T18:11:11.541Z,98917.00
2018-06-18T18:13:42.225Z,98917.00
2018-06-18T18:16:10.837Z,98917.00
2018-06-18T18:18:39.273Z,98921.00
2018-06-18T18:21:07.909Z,98919.00
2018-06-18T18:23:36.443Z,98928.00
2018-06-18T18:26:04.945Z,98927.00
2018-06-18T18:28:33.304Z,98922.00
2018-06-18T18:31:02.884Z,98926.00
2018-06-18T18:33:31.341Z,98930.00
2018-06-18T18:36:01.859Z,98928.00
2018-06-18T18:38:30.379Z,98927.00
2018-06-18T18:40:59.084Z,98929.00
2018-06-18T18:43:27.538Z,98931.00
2018-06-18T18:45:56.015Z,98928.00
2018-06-18T18:48:26.564Z,98931.00
2018-06-18T18:50:54.997Z,98930.00
2018-06-18T18:53:23.382Z,98931.00
2018-06-18T18:56:06.149Z,98929.00
2018-06-18T18:59:38.392Z,98933.00
2018-06-18T19:02:08.054Z,98933.00
2018-06-18T19:05:11.001Z,98937.00
2018-06-18T19:07:43.400Z,98941.00
2018-06-18T19:10:21.849Z,98944.00
2018-06-18T19:12:54.661Z,98946.00
2018-06-18T19:15:23.569Z,98946.00
2018-06-18T19:17:53.295Z,98946.00
2018-06-18T19:20:26.204Z,98946.00
2018-06-18T19:22:54.965Z,98952.00
2018-06-18T19:25:23.379Z,98955.00
2018-06-18T19:27:52.859Z,98962.00
2018-06-18T19:30:22.497Z,98958.00
2018-06-18T19:32:54.763Z,98965.00
2018-06-18T19:35:23.276Z,98969.00
2018-06-18T19:37:52.572Z,98975.00
2018-06-18T19:40:23.008Z,98972.00
2018-06-18T19:42:51.785Z,98974.00
2018-06-18T19:45:22.779Z,98979.00
2018-06-18T19:48:01.504Z,98980.00
2018-06-18T19:50:30.663Z,98974.00
2018-06-18T19:52:59.057Z,98977.00
2018-06-18T19:55:30.135Z,98985.00
2018-06-18T19:58:00.444Z,98989.00
2018-06-18T20:00:45.733Z,98988.00
2018-06-18T20:03:14.154Z,98988.00
2018-06-18T20:05:42.776Z,98992.00
2018-06-18T20:08:14.134Z,98993.00
2018-06-18T20:10:42.753Z,98997.00
2018-06-18T20:13:11.796Z,98997.00
2018-06-18T20:15:42.306Z,99004.00
2018-06-18T20:18:10.686Z,99006.00
2018-06-18T20:20:41.095Z,99002.00
2018-06-18T20:23:13.691Z,99003.00
2018-06-18T20:25:45.990Z,99009.00
2018-06-18T20:28:14.632Z,99008.00
2018-06-18T20:30:42.957Z,99012.00
2018-06-18T20:33:13.941Z,99011.00
2018-06-18T20:35:51.281Z,99018.00
2018-06-18T20:38:21.226Z,99014.00
2018-06-18T20:40:52.658Z,99015.00
2018-06-18T20:43:22.246Z,99015.00
2018-06-18T20:45:52.158Z,99018.00
2018-06-18T20:48:22.684Z,99016.00
2018-06-18T20:50:52.148Z,99018.00
2018-06-18T20:53:21.442Z,99012.00
2018-06-18T20:55:50.950Z,99017.00
2018-06-18T20:58:21.356Z,99008.00
2018-06-18T21:00:51.778Z,99018.00
2018-06-18T21:03:22.471Z,99016.00
2018-06-18T21:05:52.182Z,99022.00
2018-06-18T21:08:21.595Z,99017.00
2018-06-18T21:10:51.972Z,99022.00
2018-06-18T21:13:21.578Z,99017.00
2018-06-18T21:15:52.030Z,99015.00
2018-06-18T21:18:21.507Z,99018.00
2018-06-18T21:20:51.077Z,99021.00
2018-06-18T21:23:21.686Z,99024.00
2018-06-18T21:25:52.326Z,99023.00
2018-06-18T21:28:22.659Z,99023.00
2018-06-18T21:30:51.935Z,99020.00
2018-06-18T21:33:21.903Z,99025.00
2018-06-18T21:35:52.142Z,99028.00
2018-06-18T21:38:22.274Z,99032.00
2018-06-18T21:40:51.743Z,99028.00
2018-06-18T21:43:21.761Z,99026.00
2018-06-18T21:45:53.018Z,99029.00
2018-06-18T21:48:22.305Z,99032.00
2018-06-18T21:50:51.919Z,99024.00
2018-06-18T21:53:21.856Z,99029.00
2018-06-18T21:55:51.999Z,99037.00
2018-06-18T21:58:23.215Z,99032.00
2018-06-18T22:00:52.802Z,99026.00
2018-06-18T22:03:23.948Z,99027.00
2018-06-18T22:05:52.605Z,99028.00
2018-06-18T22:08:23.295Z,99031.00
2018-06-18T22:10:51.915Z,99025.00
2018-06-18T22:13:21.539Z,99027.00
2018-06-18T22:15:52.960Z,99030.00
2018-06-18T22:18:21.618Z,99027.00
2018-06-18T22:20:51.948Z,99021.00
2018-06-18T22:23:21.817Z,99020.00
2018-06-18T22:25:51.556Z,99017.00
2018-06-18T22:28:33.894Z,99027.00
2018-06-18T22:31:02.774Z,99027.00
2018-06-18T22:33:31.142Z,99026.00
2018-06-18T22:36:01.653Z,99019.00
2018-06-18T22:38:31.458Z,99020.00
2018-06-18T22:41:02.763Z,99025.00
2018-06-18T22:43:31.102Z,99020.00
2018-06-18T22:46:01.463Z,99014.00
2018-06-18T22:48:31.418Z,99015.00
2018-06-18T22:51:01.711Z,99016.00
2018-06-18T22:53:31.706Z,99017.00
2018-06-18T22:56:02.097Z,99015.00
2018-06-18T22:58:31.438Z,99016.00
2018-06-18T23:01:01.318Z,99011.00
2018-06-18T23:03:31.949Z,99011.00
2018-06-18T23:06:01.557Z,99006.00
2018-06-18T23:08:30.157Z,99010.00
2018-06-18T23:11:01.451Z,99002.00
2018-06-18T23:13:33.360Z,99007.00
2018-06-18T23:16:02.892Z,99003.00
2018-06-18T23:18:31.290Z,99000.00
2018-06-18T23:21:01.426Z,99003.00
2018-06-18T23:23:32.901Z,99003.00
2018-06-18T23:26:01.253Z,99003.00
2018-06-18T23:28:52.399Z,99001.00
2018-06-18T23:31:21.239Z,99005.00
2018-06-18T23:33:51.564Z,99003.00
2018-06-18T23:36:21.879Z,98997.00
2018-06-18T23:38:51.182Z,98999.00
2018-06-18T23:41:22.363Z,99008.00
2018-06-18T23:43:51.579Z,99008.00
2018-06-18T23:46:20.802Z,99005.00
2018-06-18T23:48:51.265Z,99009.00
2018-06-18T23:51:22.784Z,99016.00
2018-06-18T23:53:51.165Z,99016.00
2018-06-18T23:56:20.969Z,99018.00
2018-06-18T23:58:52.230Z,99019.00
